sensor_id;sensor_type;location;lat;lon;timestamp;temperature;humidity
64833;HTU21D;51290;45.060;38.948;2023-05-20T00:00:56;18.59;45.38
64833;HTU21D;51290;45.060;38.948;2023-05-20T00:03:22;18.59;45.34
64833;HTU21D;51290;45.060;38.948;2023-05-20T00:05:49;18.59;45.49
64833;HTU21D;51290;45.060;38.948;2023-05-20T00:08:14;18.61;45.54
64833;HTU21D;51290;45.060;38.948;2023-05-20T00:10:40;18.59;45.53
64833;HTU21D;51290;45.060;38.948;2023-05-20T00:13:07;18.59;45.82
64833;HTU21D;51290;45.060;38.948;2023-05-20T00:15:33;18.59;45.70
64833;HTU21D;51290;45.060;38.948;2023-05-20T00:18:01;18.59;45.84
64833;HTU21D;51290;45.060;38.948;2023-05-20T00:20:27;18.58;45.83
64833;HTU21D;51290;45.060;38.948;2023-05-20T00:22:53;18.59;46.13
64833;HTU21D;51290;45.060;38.948;2023-05-20T00:25:19;18.59;46.36
64833;HTU21D;51290;45.060;38.948;2023-05-20T00:27:45;18.62;46.41
64833;HTU21D;51290;45.060;38.948;2023-05-20T00:30:12;18.61;46.43
64833;HTU21D;51290;45.060;38.948;2023-05-20T00:32:38;18.57;46.58
64833;HTU21D;51290;45.060;38.948;2023-05-20T00:35:06;18.55;46.51
64833;HTU21D;51290;45.060;38.948;2023-05-20T00:37:32;18.51;46.76
64833;HTU21D;51290;45.060;38.948;2023-05-20T00:39:57;18.50;46.65
64833;HTU21D;51290;45.060;38.948;2023-05-20T00:42:25;18.44;47.00
64833;HTU21D;51290;45.060;38.948;2023-05-20T00:44:53;18.44;47.17
64833;HTU21D;51290;45.060;38.948;2023-05-20T00:47:24;18.42;47.38
64833;HTU21D;51290;45.060;38.948;2023-05-20T00:49:51;18.42;47.57
64833;HTU21D;51290;45.060;38.948;2023-05-20T00:52:18;18.41;47.49
64833;HTU21D;51290;45.060;38.948;2023-05-20T00:54:44;18.39;47.36
64833;HTU21D;51290;45.060;38.948;2023-05-20T00:57:11;18.36;47.67
64833;HTU21D;51290;45.060;38.948;2023-05-20T00:59:37;18.37;47.96
64833;HTU21D;51290;45.060;38.948;2023-05-20T01:02:04;18.37;47.79
64833;HTU21D;51290;45.060;38.948;2023-05-20T01:04:31;18.36;47.93
64833;HTU21D;51290;45.060;38.948;2023-05-20T01:06:59;18.37;48.57
64833;HTU21D;51290;45.060;38.948;2023-05-20T01:09:27;18.40;48.45
64833;HTU21D;51290;45.060;38.948;2023-05-20T01:12:20;18.43;48.46
64833;HTU21D;51290;45.060;38.948;2023-05-20T01:14:49;18.43;48.84
64833;HTU21D;51290;45.060;38.948;2023-05-20T01:17:18;18.43;48.50
64833;HTU21D;51290;45.060;38.948;2023-05-20T01:19:46;18.41;48.50
64833;HTU21D;51290;45.060;38.948;2023-05-20T01:22:14;18.42;48.64
64833;HTU21D;51290;45.060;38.948;2023-05-20T01:24:45;18.46;48.87
64833;HTU21D;51290;45.060;38.948;2023-05-20T01:27:14;18.52;48.97
64833;HTU21D;51290;45.060;38.948;2023-05-20T01:29:41;18.54;49.05
64833;HTU21D;51290;45.060;38.948;2023-05-20T01:32:21;18.61;49.33
64833;HTU21D;51290;45.060;38.948;2023-05-20T01:34:49;18.66;49.42
64833;HTU21D;51290;45.060;38.948;2023-05-20T01:37:17;18.70;49.61
64833;HTU21D;51290;45.060;38.948;2023-05-20T01:39:44;18.76;49.43
64833;HTU21D;51290;45.060;38.948;2023-05-20T01:42:12;18.80;49.27
64833;HTU21D;51290;45.060;38.948;2023-05-20T01:44:41;18.83;49.23
64833;HTU21D;51290;45.060;38.948;2023-05-20T01:47:07;18.83;49.24
64833;HTU21D;51290;45.060;38.948;2023-05-20T01:49:33;18.83;49.24
64833;HTU21D;51290;45.060;38.948;2023-05-20T01:51:59;18.86;49.38
64833;HTU21D;51290;45.060;38.948;2023-05-20T01:54:25;18.88;49.53
64833;HTU21D;51290;45.060;38.948;2023-05-20T01:56:52;18.91;49.48
64833;HTU21D;51290;45.060;38.948;2023-05-20T01:59:18;18.95;49.59
64833;HTU21D;51290;45.060;38.948;2023-05-20T02:01:44;18.98;49.72
64833;HTU21D;51290;45.060;38.948;2023-05-20T02:04:14;19.01;49.83
64833;HTU21D;51290;45.060;38.948;2023-05-20T02:06:40;19.05;49.80
64833;HTU21D;51290;45.060;38.948;2023-05-20T02:09:06;19.08;49.73
64833;HTU21D;51290;45.060;38.948;2023-05-20T02:11:32;19.11;49.70
64833;HTU21D;51290;45.060;38.948;2023-05-20T02:13:58;19.13;49.85
64833;HTU21D;51290;45.060;38.948;2023-05-20T02:16:24;19.18;49.75
64833;HTU21D;51290;45.060;38.948;2023-05-20T02:18:50;19.23;49.69
64833;HTU21D;51290;45.060;38.948;2023-05-20T02:21:17;19.27;49.68
64833;HTU21D;51290;45.060;38.948;2023-05-20T02:23:43;19.33;49.74
64833;HTU21D;51290;45.060;38.948;2023-05-20T02:26:09;19.40;49.58
64833;HTU21D;51290;45.060;38.948;2023-05-20T02:28:35;19.46;49.53
64833;HTU21D;51290;45.060;38.948;2023-05-20T02:31:05;19.51;49.50
64833;HTU21D;51290;45.060;38.948;2023-05-20T02:33:31;19.57;49.56
64833;HTU21D;51290;45.060;38.948;2023-05-20T02:35:59;19.66;49.34
64833;HTU21D;51290;45.060;38.948;2023-05-20T02:38:25;19.73;49.32
64833;HTU21D;51290;45.060;38.948;2023-05-20T02:40:51;19.80;49.22
64833;HTU21D;51290;45.060;38.948;2023-05-20T02:43:17;19.85;49.10
64833;HTU21D;51290;45.060;38.948;2023-05-20T02:45:43;19.91;49.02
64833;HTU21D;51290;45.060;38.948;2023-05-20T02:48:09;19.98;48.98
64833;HTU21D;51290;45.060;38.948;2023-05-20T02:50:39;20.12;48.95
64833;HTU21D;51290;45.060;38.948;2023-05-20T02:53:06;20.48;48.53
64833;HTU21D;51290;45.060;38.948;2023-05-20T02:55:35;20.89;47.89
64833;HTU21D;51290;45.060;38.948;2023-05-20T02:58:01;21.29;47.15
64833;HTU21D;51290;45.060;38.948;2023-05-20T03:00:30;21.61;46.65
64833;HTU21D;51290;45.060;38.948;2023-05-20T03:02:56;21.99;46.06
64833;HTU21D;51290;45.060;38.948;2023-05-20T03:05:23;22.32;45.48
64833;HTU21D;51290;45.060;38.948;2023-05-20T03:07:49;22.65;44.94
64833;HTU21D;51290;45.060;38.948;2023-05-20T03:10:15;23.00;44.40
64833;HTU21D;51290;45.060;38.948;2023-05-20T03:12:43;23.24;43.80
64833;HTU21D;51290;45.060;38.948;2023-05-20T03:15:09;23.46;43.47
64833;HTU21D;51290;45.060;38.948;2023-05-20T03:17:36;23.58;42.99
64833;HTU21D;51290;45.060;38.948;2023-05-20T03:20:02;23.74;42.90
64833;HTU21D;51290;45.060;38.948;2023-05-20T03:22:35;23.89;42.34
64833;HTU21D;51290;45.060;38.948;2023-05-20T03:25:02;23.98;42.29
64833;HTU21D;51290;45.060;38.948;2023-05-20T03:27:28;24.18;42.10
64833;HTU21D;51290;45.060;38.948;2023-05-20T03:29:54;24.34;41.58
64833;HTU21D;51290;45.060;38.948;2023-05-20T03:32:20;24.39;41.53
64833;HTU21D;51290;45.060;38.948;2023-05-20T03:34:46;24.51;41.23
64833;HTU21D;51290;45.060;38.948;2023-05-20T03:37:12;24.69;41.03
64833;HTU21D;51290;45.060;38.948;2023-05-20T03:39:38;24.97;40.83
64833;HTU21D;51290;45.060;38.948;2023-05-20T03:42:04;25.14;40.17
64833;HTU21D;51290;45.060;38.948;2023-05-20T03:44:31;25.21;40.33
64833;HTU21D;51290;45.060;38.948;2023-05-20T03:46:57;25.34;40.02
64833;HTU21D;51290;45.060;38.948;2023-05-20T03:49:23;25.42;39.85
64833;HTU21D;51290;45.060;38.948;2023-05-20T03:51:50;25.63;39.59
64833;HTU21D;51290;45.060;38.948;2023-05-20T03:54:16;25.78;39.10
64833;HTU21D;51290;45.060;38.948;2023-05-20T03:56:45;25.96;39.03
64833;HTU21D;51290;45.060;38.948;2023-05-20T03:59:12;25.93;38.27
64833;HTU21D;51290;45.060;38.948;2023-05-20T04:01:38;25.89;38.44
64833;HTU21D;51290;45.060;38.948;2023-05-20T04:04:04;25.91;38.43
64833;HTU21D;51290;45.060;38.948;2023-05-20T04:06:31;26.01;38.46
64833;HTU21D;51290;45.060;38.948;2023-05-20T04:08:59;26.32;38.20
64833;HTU21D;51290;45.060;38.948;2023-05-20T04:11:24;26.42;37.76
64833;HTU21D;51290;45.060;38.948;2023-05-20T04:13:50;26.43;37.70
64833;HTU21D;51290;45.060;38.948;2023-05-20T04:16:17;26.30;37.46
64833;HTU21D;51290;45.060;38.948;2023-05-20T04:18:43;26.19;37.71
64833;HTU21D;51290;45.060;38.948;2023-05-20T04:21:11;26.19;37.33
64833;HTU21D;51290;45.060;38.948;2023-05-20T04:23:37;25.82;37.51
64833;HTU21D;51290;45.060;38.948;2023-05-20T04:26:03;25.39;38.55
64833;HTU21D;51290;45.060;38.948;2023-05-20T04:28:31;24.88;39.42
64833;HTU21D;51290;45.060;38.948;2023-05-20T04:31:00;24.38;40.17
64833;HTU21D;51290;45.060;38.948;2023-05-20T04:33:32;23.95;41.03
64833;HTU21D;51290;45.060;38.948;2023-05-20T04:35:58;23.66;41.68
64833;HTU21D;51290;45.060;38.948;2023-05-20T04:38:26;23.41;42.10
64833;HTU21D;51290;45.060;38.948;2023-05-20T04:40:55;23.28;42.51
64833;HTU21D;51290;45.060;38.948;2023-05-20T04:43:26;23.24;42.68
64833;HTU21D;51290;45.060;38.948;2023-05-20T04:45:56;23.18;42.73
64833;HTU21D;51290;45.060;38.948;2023-05-20T04:48:23;23.16;42.79
64833;HTU21D;51290;45.060;38.948;2023-05-20T04:50:50;23.14;42.77
64833;HTU21D;51290;45.060;38.948;2023-05-20T04:53:19;23.08;42.77
64833;HTU21D;51290;45.060;38.948;2023-05-20T04:55:47;23.06;42.76
64833;HTU21D;51290;45.060;38.948;2023-05-20T04:58:14;22.96;42.83
64833;HTU21D;51290;45.060;38.948;2023-05-20T05:00:43;22.94;42.97
64833;HTU21D;51290;45.060;38.948;2023-05-20T05:03:10;22.94;42.92
64833;HTU21D;51290;45.060;38.948;2023-05-20T05:05:40;22.96;42.97
64833;HTU21D;51290;45.060;38.948;2023-05-20T05:08:08;22.99;42.97
64833;HTU21D;51290;45.060;38.948;2023-05-20T05:10:39;23.05;42.90
64833;HTU21D;51290;45.060;38.948;2023-05-20T05:13:06;23.05;42.69
64833;HTU21D;51290;45.060;38.948;2023-05-20T05:15:32;22.99;42.71
64833;HTU21D;51290;45.060;38.948;2023-05-20T05:17:58;22.97;42.72
64833;HTU21D;51290;45.060;38.948;2023-05-20T05:20:24;22.93;42.67
64833;HTU21D;51290;45.060;38.948;2023-05-20T05:22:50;22.91;42.65
64833;HTU21D;51290;45.060;38.948;2023-05-20T05:25:16;22.88;42.72
64833;HTU21D;51290;45.060;38.948;2023-05-20T05:27:42;22.91;42.28
64833;HTU21D;51290;45.060;38.948;2023-05-20T05:30:13;22.88;42.19
64833;HTU21D;51290;45.060;38.948;2023-05-20T05:32:39;22.85;42.16
64833;HTU21D;51290;45.060;38.948;2023-05-20T05:35:05;22.82;42.18
64833;HTU21D;51290;45.060;38.948;2023-05-20T05:37:32;22.84;42.23
64833;HTU21D;51290;45.060;38.948;2023-05-20T05:39:58;22.87;42.26
64833;HTU21D;51290;45.060;38.948;2023-05-20T05:42:24;22.92;42.23
64833;HTU21D;51290;45.060;38.948;2023-05-20T05:44:51;22.97;42.10
64833;HTU21D;51290;45.060;38.948;2023-05-20T05:47:18;23.01;41.84
64833;HTU21D;51290;45.060;38.948;2023-05-20T05:49:44;23.03;41.74
64833;HTU21D;51290;45.060;38.948;2023-05-20T05:52:10;23.03;41.56
64833;HTU21D;51290;45.060;38.948;2023-05-20T05:54:36;23.07;41.41
64833;HTU21D;51290;45.060;38.948;2023-05-20T05:57:02;23.09;41.24
64833;HTU21D;51290;45.060;38.948;2023-05-20T05:59:31;23.17;40.97
64833;HTU21D;51290;45.060;38.948;2023-05-20T06:01:58;23.17;40.88
64833;HTU21D;51290;45.060;38.948;2023-05-20T06:04:24;23.23;41.09
64833;HTU21D;51290;45.060;38.948;2023-05-20T06:06:54;23.30;40.74
64833;HTU21D;51290;45.060;38.948;2023-05-20T06:09:20;23.31;40.52
64833;HTU21D;51290;45.060;38.948;2023-05-20T06:11:46;23.34;40.36
64833;HTU21D;51290;45.060;38.948;2023-05-20T06:14:12;23.30;40.14
64833;HTU21D;51290;45.060;38.948;2023-05-20T06:16:39;23.31;40.35
64833;HTU21D;51290;45.060;38.948;2023-05-20T06:19:06;23.36;40.36
64833;HTU21D;51290;45.060;38.948;2023-05-20T06:21:34;23.47;40.42
64833;HTU21D;51290;45.060;38.948;2023-05-20T06:24:01;23.61;39.82
64833;HTU21D;51290;45.060;38.948;2023-05-20T06:26:27;23.64;39.23
64833;HTU21D;51290;45.060;38.948;2023-05-20T06:28:53;23.68;39.40
64833;HTU21D;51290;45.060;38.948;2023-05-20T06:31:20;23.74;39.04
64833;HTU21D;51290;45.060;38.948;2023-05-20T06:33:47;23.79;39.04
64833;HTU21D;51290;45.060;38.948;2023-05-20T06:36:14;23.82;38.95
64833;HTU21D;51290;45.060;38.948;2023-05-20T06:38:40;23.84;39.27
64833;HTU21D;51290;45.060;38.948;2023-05-20T06:41:06;23.91;38.94
64833;HTU21D;51290;45.060;38.948;2023-05-20T06:43:32;23.98;38.97
64833;HTU21D;51290;45.060;38.948;2023-05-20T06:46:22;24.04;38.20
64833;HTU21D;51290;45.060;38.948;2023-05-20T06:48:53;24.10;38.28
64833;HTU21D;51290;45.060;38.948;2023-05-20T06:51:19;24.13;37.79
64833;HTU21D;51290;45.060;38.948;2023-05-20T06:53:47;24.15;37.68
64833;HTU21D;51290;45.060;38.948;2023-05-20T06:56:16;24.18;37.64
64833;HTU21D;51290;45.060;38.948;2023-05-20T06:58:43;24.21;37.40
64833;HTU21D;51290;45.060;38.948;2023-05-20T07:01:09;24.27;37.24
64833;HTU21D;51290;45.060;38.948;2023-05-20T07:03:35;24.23;36.64
64833;HTU21D;51290;45.060;38.948;2023-05-20T07:06:01;24.18;36.78
64833;HTU21D;51290;45.060;38.948;2023-05-20T07:08:27;24.17;37.08
64833;HTU21D;51290;45.060;38.948;2023-05-20T07:10:56;24.20;36.82
64833;HTU21D;51290;45.060;38.948;2023-05-20T07:13:23;24.25;36.89
64833;HTU21D;51290;45.060;38.948;2023-05-20T07:15:50;24.27;36.33
64833;HTU21D;51290;45.060;38.948;2023-05-20T07:18:16;24.26;36.75
64833;HTU21D;51290;45.060;38.948;2023-05-20T07:20:47;24.31;36.60
64833;HTU21D;51290;45.060;38.948;2023-05-20T07:23:29;24.39;36.03
64833;HTU21D;51290;45.060;38.948;2023-05-20T07:25:56;24.43;35.95
64833;HTU21D;51290;45.060;38.948;2023-05-20T07:28:22;24.44;35.66
64833;HTU21D;51290;45.060;38.948;2023-05-20T07:30:48;24.45;35.89
64833;HTU21D;51290;45.060;38.948;2023-05-20T07:33:24;24.50;35.51
64833;HTU21D;51290;45.060;38.948;2023-05-20T07:35:50;24.51;35.24
64833;HTU21D;51290;45.060;38.948;2023-05-20T07:38:20;24.49;35.13
64833;HTU21D;51290;45.060;38.948;2023-05-20T07:40:50;24.57;35.18
64833;HTU21D;51290;45.060;38.948;2023-05-20T07:43:16;24.62;35.13
64833;HTU21D;51290;45.060;38.948;2023-05-20T07:45:42;24.70;35.25
64833;HTU21D;51290;45.060;38.948;2023-05-20T07:48:09;24.82;35.15
64833;HTU21D;51290;45.060;38.948;2023-05-20T07:50:38;24.95;34.70
64833;HTU21D;51290;45.060;38.948;2023-05-20T07:53:05;25.04;34.40
64833;HTU21D;51290;45.060;38.948;2023-05-20T07:55:33;25.15;34.45
64833;HTU21D;51290;45.060;38.948;2023-05-20T07:58:01;25.23;34.18
64833;HTU21D;51290;45.060;38.948;2023-05-20T08:00:27;25.33;34.01
64833;HTU21D;51290;45.060;38.948;2023-05-20T08:02:53;25.44;34.05
64833;HTU21D;51290;45.060;38.948;2023-05-20T08:05:29;25.54;33.46
64833;HTU21D;51290;45.060;38.948;2023-05-20T08:07:56;25.67;32.89
64833;HTU21D;51290;45.060;38.948;2023-05-20T08:10:25;25.79;33.31
64833;HTU21D;51290;45.060;38.948;2023-05-20T08:12:52;25.80;32.83
64833;HTU21D;51290;45.060;38.948;2023-05-20T08:15:18;25.77;32.58
64833;HTU21D;51290;45.060;38.948;2023-05-20T08:17:46;25.68;32.79
64833;HTU21D;51290;45.060;38.948;2023-05-20T08:20:12;25.58;32.76
64833;HTU21D;51290;45.060;38.948;2023-05-20T08:22:38;25.49;32.72
64833;HTU21D;51290;45.060;38.948;2023-05-20T08:25:07;25.47;32.96
64833;HTU21D;51290;45.060;38.948;2023-05-20T08:27:34;25.45;32.48
64833;HTU21D;51290;45.060;38.948;2023-05-20T08:30:01;25.44;32.32
64833;HTU21D;51290;45.060;38.948;2023-05-20T08:32:27;25.45;31.82
64833;HTU21D;51290;45.060;38.948;2023-05-20T08:34:53;25.38;32.10
64833;HTU21D;51290;45.060;38.948;2023-05-20T08:37:20;25.34;32.12
64833;HTU21D;51290;45.060;38.948;2023-05-20T08:39:46;25.33;32.04
64833;HTU21D;51290;45.060;38.948;2023-05-20T08:42:14;25.33;32.22
64833;HTU21D;51290;45.060;38.948;2023-05-20T08:44:41;25.35;32.27
64833;HTU21D;51290;45.060;38.948;2023-05-20T08:47:08;25.42;32.48
64833;HTU21D;51290;45.060;38.948;2023-05-20T08:49:35;25.51;32.50
64833;HTU21D;51290;45.060;38.948;2023-05-20T08:52:02;25.59;31.99
64833;HTU21D;51290;45.060;38.948;2023-05-20T08:54:48;25.59;31.90
64833;HTU21D;51290;45.060;38.948;2023-05-20T08:57:14;25.65;32.23
64833;HTU21D;51290;45.060;38.948;2023-05-20T08:59:42;25.73;31.88
64833;HTU21D;51290;45.060;38.948;2023-05-20T09:02:13;25.81;32.10
64833;HTU21D;51290;45.060;38.948;2023-05-20T09:04:40;25.88;32.14
64833;HTU21D;51290;45.060;38.948;2023-05-20T09:07:06;25.95;31.81
64833;HTU21D;51290;45.060;38.948;2023-05-20T09:09:33;25.97;31.79
64833;HTU21D;51290;45.060;38.948;2023-05-20T09:12:01;26.06;31.77
64833;HTU21D;51290;45.060;38.948;2023-05-20T09:14:28;26.06;31.48
64833;HTU21D;51290;45.060;38.948;2023-05-20T09:16:54;26.01;31.52
64833;HTU21D;51290;45.060;38.948;2023-05-20T09:19:24;26.01;31.45
64833;HTU21D;51290;45.060;38.948;2023-05-20T09:21:54;25.95;31.33
64833;HTU21D;51290;45.060;38.948;2023-05-20T09:24:22;25.91;31.46
64833;HTU21D;51290;45.060;38.948;2023-05-20T09:26:50;25.94;31.54
64833;HTU21D;51290;45.060;38.948;2023-05-20T09:29:16;25.97;31.18
64833;HTU21D;51290;45.060;38.948;2023-05-20T09:31:42;25.97;31.37
64833;HTU21D;51290;45.060;38.948;2023-05-20T09:34:09;26.01;30.85
64833;HTU21D;51290;45.060;38.948;2023-05-20T09:36:35;26.02;30.73
64833;HTU21D;51290;45.060;38.948;2023-05-20T09:39:02;25.94;30.89
64833;HTU21D;51290;45.060;38.948;2023-05-20T09:41:37;25.90;30.48
64833;HTU21D;51290;45.060;38.948;2023-05-20T09:44:04;25.82;30.22
64833;HTU21D;51290;45.060;38.948;2023-05-20T09:46:33;25.77;30.65
64833;HTU21D;51290;45.060;38.948;2023-05-20T09:49:01;25.73;30.61
64833;HTU21D;51290;45.060;38.948;2023-05-20T09:51:28;25.68;30.70
64833;HTU21D;51290;45.060;38.948;2023-05-20T09:53:54;25.62;30.54
64833;HTU21D;51290;45.060;38.948;2023-05-20T09:56:23;25.56;30.76
64833;HTU21D;51290;45.060;38.948;2023-05-20T09:58:50;25.54;30.78
64833;HTU21D;51290;45.060;38.948;2023-05-20T10:01:23;25.53;31.06
64833;HTU21D;51290;45.060;38.948;2023-05-20T10:03:51;25.59;31.35
64833;HTU21D;51290;45.060;38.948;2023-05-20T10:06:25;25.68;31.14
64833;HTU21D;51290;45.060;38.948;2023-05-20T10:18:05;25.99;30.39
64833;HTU21D;51290;45.060;38.948;2023-05-20T10:20:47;26.01;30.29
64833;HTU21D;51290;45.060;38.948;2023-05-20T10:23:20;25.99;30.06
64833;HTU21D;51290;45.060;38.948;2023-05-20T10:25:51;26.03;30.31
64833;HTU21D;51290;45.060;38.948;2023-05-20T10:28:33;26.05;29.94
64833;HTU21D;51290;45.060;38.948;2023-05-20T10:31:01;26.05;29.90
64833;HTU21D;51290;45.060;38.948;2023-05-20T10:33:28;26.03;29.89
64833;HTU21D;51290;45.060;38.948;2023-05-20T10:36:00;25.99;30.02
64833;HTU21D;51290;45.060;38.948;2023-05-20T10:38:26;26.01;29.80
64833;HTU21D;51290;45.060;38.948;2023-05-20T10:40:52;25.94;29.89
64833;HTU21D;51290;45.060;38.948;2023-05-20T10:43:27;25.92;30.16
64833;HTU21D;51290;45.060;38.948;2023-05-20T10:45:55;25.93;29.93
64833;HTU21D;51290;45.060;38.948;2023-05-20T10:48:27;25.91;30.06
64833;HTU21D;51290;45.060;38.948;2023-05-20T10:50:58;25.93;30.19
64833;HTU21D;51290;45.060;38.948;2023-05-20T10:53:26;25.94;30.35
64833;HTU21D;51290;45.060;38.948;2023-05-20T10:55:53;25.96;30.25
64833;HTU21D;51290;45.060;38.948;2023-05-20T10:58:21;25.95;30.31
64833;HTU21D;51290;45.060;38.948;2023-05-20T11:00:52;25.97;30.19
64833;HTU21D;51290;45.060;38.948;2023-05-20T11:03:20;26.01;30.33
64833;HTU21D;51290;45.060;38.948;2023-05-20T11:05:47;26.08;30.11
64833;HTU21D;51290;45.060;38.948;2023-05-20T11:08:13;26.08;29.92
64833;HTU21D;51290;45.060;38.948;2023-05-20T11:10:41;26.05;29.96
64833;HTU21D;51290;45.060;38.948;2023-05-20T11:13:11;26.04;30.04
64833;HTU21D;51290;45.060;38.948;2023-05-20T11:15:38;25.99;29.85
64833;HTU21D;51290;45.060;38.948;2023-05-20T11:18:04;25.94;29.64
64833;HTU21D;51290;45.060;38.948;2023-05-20T11:20:30;25.89;30.00
64833;HTU21D;51290;45.060;38.948;2023-05-20T11:23:00;25.91;30.29
64833;HTU21D;51290;45.060;38.948;2023-05-20T11:25:27;25.94;30.29
64833;HTU21D;51290;45.060;38.948;2023-05-20T11:27:53;25.97;30.38
64833;HTU21D;51290;45.060;38.948;2023-05-20T11:30:19;25.97;30.36
64833;HTU21D;51290;45.060;38.948;2023-05-20T11:33:05;25.94;29.97
64833;HTU21D;51290;45.060;38.948;2023-05-20T11:35:31;25.88;30.22
64833;HTU21D;51290;45.060;38.948;2023-05-20T11:38:05;25.82;30.48
64833;HTU21D;51290;45.060;38.948;2023-05-20T11:40:33;25.79;30.47
64833;HTU21D;51290;45.060;38.948;2023-05-20T11:43:01;25.79;30.53
64833;HTU21D;51290;45.060;38.948;2023-05-20T11:45:41;25.81;30.64
64833;HTU21D;51290;45.060;38.948;2023-05-20T11:48:08;25.82;30.74
64833;HTU21D;51290;45.060;38.948;2023-05-20T11:50:37;25.87;30.71
64833;HTU21D;51290;45.060;38.948;2023-05-20T11:53:15;25.92;30.84
64833;HTU21D;51290;45.060;38.948;2023-05-20T11:55:50;25.96;30.31
64833;HTU21D;51290;45.060;38.948;2023-05-20T11:58:21;25.98;30.61
64833;HTU21D;51290;45.060;38.948;2023-05-20T12:00:48;26.03;30.58
64833;HTU21D;51290;45.060;38.948;2023-05-20T12:03:14;26.06;30.62
64833;HTU21D;51290;45.060;38.948;2023-05-20T12:05:42;26.07;30.69
64833;HTU21D;51290;45.060;38.948;2023-05-20T12:08:08;26.10;30.59
64833;HTU21D;51290;45.060;38.948;2023-05-20T12:10:34;26.11;30.74
64833;HTU21D;51290;45.060;38.948;2023-05-20T12:13:02;26.15;30.75
64833;HTU21D;51290;45.060;38.948;2023-05-20T12:15:28;26.18;30.59
64833;HTU21D;51290;45.060;38.948;2023-05-20T12:17:55;26.20;30.67
64833;HTU21D;51290;45.060;38.948;2023-05-20T12:20:22;26.19;30.40
64833;HTU21D;51290;45.060;38.948;2023-05-20T12:22:49;26.16;30.42
64833;HTU21D;51290;45.060;38.948;2023-05-20T12:25:16;26.13;30.54
64833;HTU21D;51290;45.060;38.948;2023-05-20T12:27:44;26.13;30.68
64833;HTU21D;51290;45.060;38.948;2023-05-20T12:30:14;26.12;30.65
64833;HTU21D;51290;45.060;38.948;2023-05-20T12:32:41;26.16;30.81
64833;HTU21D;51290;45.060;38.948;2023-05-20T12:35:08;26.20;30.68
64833;HTU21D;51290;45.060;38.948;2023-05-20T12:37:35;26.25;30.66
64833;HTU21D;51290;45.060;38.948;2023-05-20T12:40:02;26.31;30.83
64833;HTU21D;51290;45.060;38.948;2023-05-20T12:42:35;26.40;30.87
64833;HTU21D;51290;45.060;38.948;2023-05-20T12:45:01;26.48;30.71
64833;HTU21D;51290;45.060;38.948;2023-05-20T12:47:27;26.54;30.73
64833;HTU21D;51290;45.060;38.948;2023-05-20T12:49:53;26.58;30.51
64833;HTU21D;51290;45.060;38.948;2023-05-20T12:52:19;26.58;30.35
64833;HTU21D;51290;45.060;38.948;2023-05-20T12:54:45;26.57;30.22
64833;HTU21D;51290;45.060;38.948;2023-05-20T12:57:11;26.54;30.25
64833;HTU21D;51290;45.060;38.948;2023-05-20T12:59:37;26.53;30.28
64833;HTU21D;51290;45.060;38.948;2023-05-20T13:02:03;26.53;30.35
64833;HTU21D;51290;45.060;38.948;2023-05-20T13:04:30;26.60;30.19
64833;HTU21D;51290;45.060;38.948;2023-05-20T13:06:56;26.58;29.97
64833;HTU21D;51290;45.060;38.948;2023-05-20T13:09:23;26.57;29.93
64833;HTU21D;51290;45.060;38.948;2023-05-20T13:11:49;26.53;29.88
64833;HTU21D;51290;45.060;38.948;2023-05-20T13:14:14;26.52;30.15
64833;HTU21D;51290;45.060;38.948;2023-05-20T13:16:40;26.50;30.11
64833;HTU21D;51290;45.060;38.948;2023-05-20T13:19:06;26.52;30.30
64833;HTU21D;51290;45.060;38.948;2023-05-20T13:21:33;26.54;30.28
64833;HTU21D;51290;45.060;38.948;2023-05-20T13:23:59;26.55;30.19
64833;HTU21D;51290;45.060;38.948;2023-05-20T13:26:26;26.53;30.25
64833;HTU21D;51290;45.060;38.948;2023-05-20T13:28:52;26.50;30.11
64833;HTU21D;51290;45.060;38.948;2023-05-20T13:31:18;26.48;30.22
64833;HTU21D;51290;45.060;38.948;2023-05-20T13:33:44;26.48;30.13
64833;HTU21D;51290;45.060;38.948;2023-05-20T13:36:10;26.51;30.12
64833;HTU21D;51290;45.060;38.948;2023-05-20T13:38:36;26.49;30.09
64833;HTU21D;51290;45.060;38.948;2023-05-20T13:41:02;26.47;30.11
64833;HTU21D;51290;45.060;38.948;2023-05-20T13:43:28;26.47;30.10
64833;HTU21D;51290;45.060;38.948;2023-05-20T13:45:54;26.45;29.73
64833;HTU21D;51290;45.060;38.948;2023-05-20T13:48:20;26.39;29.64
64833;HTU21D;51290;45.060;38.948;2023-05-20T13:50:46;26.35;29.94
64833;HTU21D;51290;45.060;38.948;2023-05-20T13:53:13;26.35;30.12
64833;HTU21D;51290;45.060;38.948;2023-05-20T13:55:39;26.38;30.22
64833;HTU21D;51290;45.060;38.948;2023-05-20T13:58:06;26.40;30.30
64833;HTU21D;51290;45.060;38.948;2023-05-20T14:00:35;26.41;30.22
64833;HTU21D;51290;45.060;38.948;2023-05-20T14:03:02;26.38;30.32
64833;HTU21D;51290;45.060;38.948;2023-05-20T14:05:30;26.36;30.13
64833;HTU21D;51290;45.060;38.948;2023-05-20T14:07:57;26.33;30.30
64833;HTU21D;51290;45.060;38.948;2023-05-20T14:10:23;26.28;30.35
64833;HTU21D;51290;45.060;38.948;2023-05-20T14:12:50;26.24;30.42
64833;HTU21D;51290;45.060;38.948;2023-05-20T14:15:16;26.21;30.58
64833;HTU21D;51290;45.060;38.948;2023-05-20T14:17:43;26.20;30.57
64833;HTU21D;51290;45.060;38.948;2023-05-20T14:20:09;26.18;30.65
64833;HTU21D;51290;45.060;38.948;2023-05-20T14:22:35;26.13;30.71
64833;HTU21D;51290;45.060;38.948;2023-05-20T14:25:01;26.11;30.82
64833;HTU21D;51290;45.060;38.948;2023-05-20T14:27:28;26.09;30.97
64833;HTU21D;51290;45.060;38.948;2023-05-20T14:29:54;26.09;31.04
64833;HTU21D;51290;45.060;38.948;2023-05-20T14:32:20;26.07;31.13
64833;HTU21D;51290;45.060;38.948;2023-05-20T14:34:46;26.03;31.17
64833;HTU21D;51290;45.060;38.948;2023-05-20T14:37:12;25.97;31.27
64833;HTU21D;51290;45.060;38.948;2023-05-20T14:39:40;25.93;31.38
64833;HTU21D;51290;45.060;38.948;2023-05-20T14:42:06;25.86;31.51
64833;HTU21D;51290;45.060;38.948;2023-05-20T14:44:32;25.81;31.64
64833;HTU21D;51290;45.060;38.948;2023-05-20T14:46:58;25.77;31.78
64833;HTU21D;51290;45.060;38.948;2023-05-20T14:49:24;25.76;31.88
64833;HTU21D;51290;45.060;38.948;2023-05-20T14:51:50;25.74;31.94
64833;HTU21D;51290;45.060;38.948;2023-05-20T14:54:16;25.71;31.96
64833;HTU21D;51290;45.060;38.948;2023-05-20T14:56:43;25.67;32.02
64833;HTU21D;51290;45.060;38.948;2023-05-20T14:59:09;25.64;32.02
64833;HTU21D;51290;45.060;38.948;2023-05-20T15:01:36;25.58;32.04
64833;HTU21D;51290;45.060;38.948;2023-05-20T15:04:02;25.56;31.99
64833;HTU21D;51290;45.060;38.948;2023-05-20T15:06:28;25.52;31.98
64833;HTU21D;51290;45.060;38.948;2023-05-20T15:08:56;25.49;31.97
64833;HTU21D;51290;45.060;38.948;2023-05-20T15:11:22;25.49;31.93
64833;HTU21D;51290;45.060;38.948;2023-05-20T15:13:48;25.48;31.86